默认 日期 大小 文件数 浏览量 最新下载 xml
your磁力链接相关资源由用户搜索指令自动获取,结果来源于网络,本站不存储任何资料,亦不承担任何责任,请于24小时内删除,搜索到108654个磁力,显示前4000条数据,用时11ms。
    ... 23845951, "Own the Day, Own Your Life-Part02.mp3": 22216328, "Own ... the Day, Own Your Life-Part03.mp3": 23206892, "Own ... the Day, Own Your Life-Part04.mp3": 35263133, "Own ... the Day, Own Your Life-Part05.mp3": 22272126, "Own ...
创建时间: 2018-10-27 13:40:51 大小:304.63 MB 文件数量:13 热度:534 最近下载:2025-09-27 15:20:05
    ... 6353427, "162. Lily Allen - Your Choice.mp3": 8987028, "182. Calvin ... 8346051, "112. Faruk Sabanci - Your Call.mp3": 7159840, "133. Cliq ... 095. Inna - Say It With Your Body.mp3": 7401251, "105. ... "184. Stormzy - Blinded By Your Grace.mp3": 9373173, "046. Charming ...
创建时间: 2018-10-27 13:47:06 大小:1.79 GB 文件数量:231 热度:404 最近下载:2025-08-17 01:12:01
    {"cover.jpg": 672163, "16. Huma - Yotta.mp3": 21156585, "11. Coloba - Karass.mp3": 10477734, "09. Edictum - Racetrack.mp3": 5112191, "14. nurs - Lying to You.mp3": 4707816, "10. ooluu - Perpetuities.mp3": 16738773, "04. Blume Attempt - Youth.mp3": 12230040 ...
创建时间: 2018-10-27 14:01:00 大小:212.51 MB 文件数量:21 热度:368 最近下载:2025-08-17 01:13:02
    {"Torrent_downloaded_from_Demonoid_-_www.demonoid.pw_.txt": 59, "The Brew Your Own Big Book of Clone Recipes - Brew Your Own.epub": 19741598}
创建时间: 2018-10-27 14:17:29 大小:18.83 MB 文件数量:2 热度:94 最近下载:2025-09-20 03:35:02
    ... .mobi": 192822, "App Millionaire_ Start Your Own Business - David McMahon.jpg ...
创建时间: 2018-10-27 14:19:42 大小:473.85 KB 文件数量:4 热度:191 最近下载:2025-10-15 13:54:02
    {"The 30 Day MBA - Your Fast Track Guide to Business Success.epub": 1767516}
创建时间: 2018-10-27 14:32:59 大小:1.69 MB 文件数量:1 热度:84 最近下载:2025-08-17 00:55:02
    {"screenlist.jpg": 960678, "abbi_secraa_movie_70.mp4": 1210942355}
创建时间: 2018-10-27 14:36:11 大小:1.13 GB 文件数量:2 热度:329 最近下载:2025-10-16 23:26:03
    {"lethalhardcore.your.mom.tossed.my.salad.19.hd.mp4": 3072836543}
创建时间: 2018-10-27 14:43:28 大小:2.86 GB 文件数量:1 热度:915 最近下载:2025-10-12 08:46:03
    ... from Here.. Thank You 4 Your service.pdf": 6711447}
创建时间: 2018-10-27 14:45:51 大小:1.26 GB 文件数量:19 热度:138 最近下载:2025-09-10 07:47:02
    {"01.mp3": 9784527, "02.mp3": 13629771, "03.mp3": 11840896, "04.mp3": 8666506, "05.mp3": 15086365, "06.mp3": 11394735, "07.mp3": 10018600, "08.mp3": 11598470, "09.mp3": 23478992, "jp.jpg": 10963}
创建时间: 2018-10-27 14:52:04 大小:110.16 MB 文件数量:10 热度:90 最近下载:2025-09-18 02:13:02
    {"Downloaded from www.ETTV.tv .txt": 272, "Call Me By Your Name 2017 DVDSCR X264 CataVentos[EtMovies].mkv": 867550604}
创建时间: 2018-10-27 14:58:20 大小:827.36 MB 文件数量:2 热度:134 最近下载:2025-10-05 03:03:06
    {"I.Wanna.Cum.Inside.Your.Mom.39.XXX.720P.WEBRIP.MP4-GUSH": {"1.jpg": 379139, "front.jpg": 242452, "gush.i.wanna.cum.inside.your.mom.39.mp4": 2469448240, "gush.i.wanna.cum.inside.your.mom.39.720p.nfo": 9164}}
创建时间: 2018-10-27 15:02:11 大小:2.3 GB 文件数量:4 热度:1419 最近下载:2025-10-12 04:27:01
    {"RARBG.txt": 30, "kimberleelive.18.01.26.you.love.eating.your.cum.for.me.mp4": 499985277, "kimberleelive.18.01.26.you.love.eating.your.cum.for.me.nfo": 5208}
创建时间: 2018-10-27 15:03:09 大小:476.83 MB 文件数量:3 热度:285 最近下载:2025-09-17 08:44:16
    ... P.M. - Baby, I Need Your Loving.jpeg": 61249, "02 - Baby ... , I Need Your Loving (Gogo Edit).mp3": 9227616 ... , "01 - Baby, I Need Your Loving (Radio Edit).mp3": 8604858 ... , "03 - Baby, I Need Your Loving (Dance Edit).mp3": 10513886 ...
创建时间: 2018-10-27 15:07:38 大小:34.13 MB 文件数量:5 热度:158 最近下载:2025-10-07 17:20:02
    ... ": 1860656, "60_Second_VersionReport.txt": 1050}, "Promote Your Product with Kinetic Typography_Inline.jpg ...
创建时间: 2018-10-27 15:10:04 大小:45.48 MB 文件数量:26 热度:54 最近下载:2025-08-17 00:55:02
    ... Apologize.mp3": 9767734, "01. Got Your Six.mp3": 7128489, "10. Meet ...
创建时间: 2018-10-27 15:20:08 大小:106.91 MB 文件数量:17 热度:93 最近下载:2025-08-17 00:55:01
    ... Child.m4a": 12819575, "11 Lift Your Spirit.m4a": 7355291, "02 Love ...
创建时间: 2018-10-27 15:22:18 大小:98.38 MB 文件数量:12 热度:55 最近下载:2025-08-24 05:38:02
    {"how.i.met.your.mother.720.hdtv-lol.mp4": 172964216, "Torrent Downloaded From ExtraTorrent.com.txt": 353}
创建时间: 2018-10-27 15:36:23 大小:164.95 MB 文件数量:2 热度:219 最近下载:2025-08-17 00:55:03
    {"RARBG.txt": 30, "stepsiblingscaught.18.07.29.danni.rivers.let.me.borrow.your.cock.mp4": 2812805528, "stepsiblingscaught.18.07.29.danni.rivers.let.me.borrow.your.cock.nfo": 5217}
创建时间: 2018-10-27 16:05:47 大小:2.62 GB 文件数量:3 热度:511 最近下载:2025-10-11 23:47:01
    {"This Is Your Mom Getting Fucked In A Porno Movie CD1 08.07.2015 Mylove .mkv": 284764157, "This Is Your Mom Getting Fucked In A Porno Movie CD2 08.07.2015 Mylove .mkv": 492664657}
创建时间: 2018-10-27 16:32:13 大小:741.41 MB 文件数量:2 热度:594 最近下载:2025-10-15 23:22:03